Flight Track Log - Related Links

Times and Time Zones

All times are in EDT time to prevent confusion due to time zone crossing. See the UAL4553 flight status page for this flight to view local times or setup timezone preferences in your user account.

Time Position Orientation Groundspeed Altitude Reporting Facility
EDT Latitude Longitude Course Direction KTS MPH feet Rate Location/Type
Mon 08:01:05 PM 29.9661 -95.3456 90° East 140 161 800  Level Houston Center
Mon 08:01:55 PM 29.9533 -95.3044 110° East 173 199 2,400 1,784 Climbing Houston Center
Mon 08:02:19 PM 29.9528 -95.2700 91° East 247 284 3,000 1,935 Climbing Houston Center
Mon 08:02:57 PM 29.9564 -95.2258 85° East 239 275 4,400 2,361 Climbing Houston Center
Mon 08:03:20 PM 29.9578 -95.1872 88° East 265 305 5,400 2,516 Climbing Houston Center
Mon 08:03:59 PM 29.9608 -95.1383 86° East 263 303 7,000 2,507 Climbing Houston Center
Mon 08:04:00 PM 29.9834 -94.8065 90° East  Level FlightAware Approximate
Mon 08:04:27 PM 29.9633 -95.0878 87° East 280 322 8,200  Level Houston Center
Mon 08:05:00 PM 29.9834 -94.7011 90° East  Level FlightAware Approximate
Mon 08:05:01 PM 29.9644 -95.0464 88° East 279 321 9,300  Level Houston Center
Mon 08:06:00 PM 29.9833 -94.5958 90° East  Level FlightAware Approximate
Mon 08:06:03 PM 29.9694 -94.9478 87° East 297 342 11,000  Level Houston Center
Mon 08:07:05 PM 29.9747 -94.8333 87° East 339 390 12,100 1,016 Climbing Houston Center
Mon 08:08:07 PM 29.9800 -94.7081 87° East 377 434 13,100 1,258 Climbing Houston Center
Mon 08:09:09 PM 29.9869 -94.5522 87° East 399 459 14,700 1,512 Climbing Houston Center
Mon 08:10:10 PM 29.9928 -94.4217 87° East 402 463 16,200 1,463 Climbing Houston Center
Mon 08:11:12 PM 29.9978 -94.2936 87° East 401 461 17,700 1,403 Climbing Houston Center
Mon 08:12:14 PM 30.0133 -94.1678 82° East 400 460 19,100 1,452 Climbing Houston Center
Mon 08:13:16 PM 30.0297 -94.0403 82° East 401 461 20,700 1,500 Climbing Houston Center
Mon 08:14:18 PM 30.0456 -93.9100 82° East 406 467 22,200 1,113 Climbing Houston Center
Mon 08:15:20 PM 30.0647 -93.7489 82° East 416 479 23,000 390 Climbing Houston Center
Mon 08:16:21 PM 30.0828 -93.6031 82° East 445 512 23,000 -49 Level Houston Center
Mon 08:17:23 PM 30.0986 -93.4567 83° East 465 535 22,900  Descending Houston Center
Mon 08:18:25 PM 30.1161 -93.3139 82° East 458 527 23,000 -339 Climbing Houston Center
Mon 08:19:27 PM 30.1325 -93.1711 82° East 455 524 22,200 -1,790 Descending Houston Center
Mon 08:20:29 PM 30.1464 -92.9983 85° East 452 520 19,300 -2,829 Descending Houston Center
Mon 08:21:30 PM 30.1531 -92.8664 87° East 415 478 16,400 -3,024 Descending Houston Center
Mon 08:22:32 PM 30.1594 -92.7369 87° East 406 467 13,100 -2,661 Descending Houston Center
Mon 08:23:34 PM 30.1658 -92.6136 87° East 390 449 10,900 -1,500 Descending Houston Center
Mon 08:24:36 PM 30.1708 -92.5092 87° East 325 374 10,000 -1,171 Descending Houston Center
Mon 08:25:37 PM 30.1744 -92.4158 87° East 299 344 8,500 -1,756 Descending Houston Center
Mon 08:26:39 PM 30.1783 -92.3272 87° East 283 326 6,400 -2,177 Descending Houston Center
Mon 08:27:41 PM 30.1672 -92.2281 97° East 265 305 4,000 -2,323 Descending Houston Center

Login

Don't have an account? Register now (free) for customized features, flight alerts, and more!